Hovedside
METAR-TAF:

METAR-TAF

Lufthavner :

Alice Springs, Australia

breddegrad: 23-48S, lengdegrad: 133-53E, høyde over havet: 545 m

Gjeldene værobservasjon

Denne rapporten ble laget for 28 minutter siden, klokken 09:00 UTC
Vind 5 kt fra Sørvest
Temperatur 20°C
Luftfuktighet 21%
Trykk 1018 hPa
Sikt 10 km eller mer

METAR: YBAS 190900Z AUTO 22005KT 9999 // NCD 20/M03 Q1018 RF00.0/000.0

Tid: 18:58 (09:28 UTC)

Varsel

Denne rapporten ble laget for 4 timer og 26 minutter siden, klokken 05:02 UTC
Varsel gyldig fra 19. klokken 06 UTC til 20. klokken 06 UTC
Vind 12 kt fra Sørvest
Sikt 10 km eller mer
ingen skyer under 1500 m og ingen bygeskyer
Fra 19. klokken 0900 UTC
Vind 5 kt fra Sør
Sikt 10 km eller mer
ingen skyer under 1500 m og ingen bygeskyer
Fra 20. klokken 0000 UTC
Vind 12 kt fra Øst-sørøst
Sikt 10 km eller mer
ingen skyer under 1500 m og ingen bygeskyer

TAF: YBAS 190502Z 1906/2006 22012KT CAVOK FM190900 18005KT CAVOK FM200000 12012KT CAVOK

Værobservasjoner og værvarsel for over 4000 flyplasser (METAR- og TAF-rapporter).

Tilgjengelige stasjoner er representert av de røde og gule prikkene på kartet.

Hold musepekeren over prikken for å se navnet på stasjonen.

Klikk så for å se værobservasjoner og -varsler.

For å forandre kartet kan du klikke på den grønne knappen med svart kryss for å zoome inn, på den grønne knappen med strek for å zoome ut, eller på de grønne pilene for å se tilstøtende kart.


METAR-TAF: